NCAR-RAP Real-Time Weather Data

Output produced by METARs form (10 April 2020  07:28 UTC)
found at http://weather.rap.ucar.edu/surface/
 
KEKO 100656Z AUTO 00000KT 10SM CLR 02/M02 A3011 RMK AO2 SLP188 T00171017 $
KEKO 100556Z AUTO 00000KT 10SM CLR 03/M02 A3011 RMK AO2 SLP185 60001 T00281017 10083 20028 51015 $
KEKO 100456Z AUTO 00000KT 10SM CLR 04/M01 A3010 RMK AO2 SLP181 T00391006 $
KEKO 100356Z AUTO 23003KT 10SM CLR 05/01 A3008 RMK AO2 SLP176 T00500006 $
KEKO 100256Z AUTO 24004KT 10SM OVC100 07/01 A3005 RMK AO2 SLP166 60001 T00670011 51008 $
KEKO 100156Z AUTO 19005KT 10SM BKN070 OVC090 07/02 A3004 RMK AO2 RAE19 SLP164 P0000 T00720022 $
KEKO 100056Z AUTO 00000KT 10SM -RA FEW044 OVC055 08/02 A3005 RMK AO2 RAB46 SLP162 P0001 T00780022 $
KEKO 092356Z AUTO 22010G18KT 190V250 10SM FEW045 BKN070 OVC085 08/02 A3003 RMK AO2 PK WND 19031/2308 SLP157 T00780017 10167 20072 53012 $
KEKO 092256Z AUTO 18019G31KT 10SM BKN080 OVC090 08/01 A3002 RMK AO2 PK WND 17031/2254 WSHFT 2154 SLP152 T00830011 $
KEKO 092214Z AUTO 18016G25KT 10SM OVC090 13/02 A2998 RMK AO2 WSHFT 2154 T01280022 $
KEKO 092156Z AUTO 21010KT 10SM BKN100 15/02 A2997 RMK AO2 SLP122 T01500017 $
KEKO 092056Z AUTO 21011G15KT 10SM BKN075 BKN100 14/01 A2999 RMK AO2 SLP128 T01440011 58010
KEKO 091956Z AUTO 25008KT 10SM CLR 16/00 A3000 RMK AO2 SLP131 T01560000
KEKO 091856Z AUTO 22006KT 10SM OVC075 14/M01 A3002 RMK AO2 SLP139 T01391011
KEKO 091756Z AUTO 24007KT 10SM BKN110 13/M02 A3002 RMK AO2 SLP142 T01281017 10139 20061 56002
KEKO 091656Z AUTO VRB06KT 10SM BKN110 12/M01 A3002 RMK AO2 SLP140 T01221011
KEKO 091556Z AUTO 21003KT 10SM CLR 10/M02 A3001 RMK AO2 SLP142 T01001022
KEKO 091456Z AUTO 17006KT 10SM CLR 09/M01 A3003 RMK AO2 SLP147 T00891006 51022
KEKO 091356Z AUTO VRB05KT 10SM CLR 07/M01 A3002 RMK AO2 SLP143 T00721011
KEKO 091256Z AUTO 08007G19KT 10SM FEW110 08/M04 A3000 RMK AO2 SLP132 T00831044
KEKO 091156Z AUTO 06012KT 10SM CLR 08/M04 A2996 RMK AO2 SLP116 T00781039 10106 20078 55001
KEKO 091056Z AUTO 06012KT 10SM CLR 08/M04 A2995 RMK AO2 SLP113 T00831044